sensor_id;sensor_type;location;lat;lon;timestamp;P1;durP1;ratioP1;P2;durP2;ratioP2
82022;SDS011;71575;49.908;18.356;2024-01-11T00:01:28;42.35;;;21.63;;
82022;SDS011;71575;49.908;18.356;2024-01-11T00:04:28;44.70;;;21.65;;
82022;SDS011;71575;49.908;18.356;2024-01-11T00:07:29;38.65;;;19.40;;
82022;SDS011;71575;49.908;18.356;2024-01-11T00:10:31;43.33;;;20.70;;
82022;SDS011;71575;49.908;18.356;2024-01-11T00:13:32;48.15;;;20.38;;
82022;SDS011;71575;49.908;18.356;2024-01-11T00:16:32;41.20;;;19.85;;
82022;SDS011;71575;49.908;18.356;2024-01-11T00:19:33;44.08;;;22.23;;
82022;SDS011;71575;49.908;18.356;2024-01-11T00:22:34;48.03;;;21.23;;
82022;SDS011;71575;49.908;18.356;2024-01-11T00:25:35;42.75;;;21.08;;
82022;SDS011;71575;49.908;18.356;2024-01-11T00:28:35;47.42;;;18.90;;
82022;SDS011;71575;49.908;18.356;2024-01-11T00:31:36;43.30;;;19.25;;
82022;SDS011;71575;49.908;18.356;2024-01-11T00:34:39;41.88;;;20.10;;
82022;SDS011;71575;49.908;18.356;2024-01-11T00:37:40;42.58;;;19.05;;
82022;SDS011;71575;49.908;18.356;2024-01-11T00:40:43;45.03;;;20.00;;
82022;SDS011;71575;49.908;18.356;2024-01-11T00:43:45;43.35;;;21.35;;
82022;SDS011;71575;49.908;18.356;2024-01-11T00:46:46;40.67;;;19.08;;
82022;SDS011;71575;49.908;18.356;2024-01-11T00:49:47;46.00;;;19.27;;
82022;SDS011;71575;49.908;18.356;2024-01-11T00:52:48;41.95;;;18.92;;
82022;SDS011;71575;49.908;18.356;2024-01-11T00:55:49;44.65;;;18.00;;
82022;SDS011;71575;49.908;18.356;2024-01-11T00:58:51;33.67;;;17.13;;
82022;SDS011;71575;49.908;18.356;2024-01-11T01:01:52;36.72;;;15.77;;
82022;SDS011;71575;49.908;18.356;2024-01-11T01:04:52;38.75;;;16.85;;
82022;SDS011;71575;49.908;18.356;2024-01-11T01:07:53;44.40;;;18.23;;
82022;SDS011;71575;49.908;18.356;2024-01-11T01:10:54;34.13;;;16.13;;
82022;SDS011;71575;49.908;18.356;2024-01-11T01:13:55;36.75;;;18.45;;
82022;SDS011;71575;49.908;18.356;2024-01-11T01:16:56;37.40;;;14.02;;
82022;SDS011;71575;49.908;18.356;2024-01-11T01:19:57;36.45;;;15.10;;
82022;SDS011;71575;49.908;18.356;2024-01-11T01:22:57;38.15;;;18.35;;
82022;SDS011;71575;49.908;18.356;2024-01-11T01:25:58;34.47;;;17.02;;
82022;SDS011;71575;49.908;18.356;2024-01-11T01:28:59;35.00;;;18.38;;
82022;SDS011;71575;49.908;18.356;2024-01-11T01:32:00;34.08;;;15.60;;
82022;SDS011;71575;49.908;18.356;2024-01-11T01:35:00;34.05;;;15.55;;
82022;SDS011;71575;49.908;18.356;2024-01-11T01:38:01;33.20;;;15.48;;
82022;SDS011;71575;49.908;18.356;2024-01-11T01:41:02;29.75;;;15.38;;
82022;SDS011;71575;49.908;18.356;2024-01-11T01:44:03;30.38;;;14.75;;
82022;SDS011;71575;49.908;18.356;2024-01-11T01:47:05;42.08;;;16.48;;
82022;SDS011;71575;49.908;18.356;2024-01-11T01:50:09;32.95;;;14.80;;
82022;SDS011;71575;49.908;18.356;2024-01-11T01:53:11;33.00;;;15.80;;
82022;SDS011;71575;49.908;18.356;2024-01-11T01:56:11;35.50;;;16.38;;
82022;SDS011;71575;49.908;18.356;2024-01-11T01:59:12;33.88;;;15.05;;
82022;SDS011;71575;49.908;18.356;2024-01-11T02:02:14;32.05;;;15.52;;
82022;SDS011;71575;49.908;18.356;2024-01-11T02:05:15;35.03;;;16.33;;
82022;SDS011;71575;49.908;18.356;2024-01-11T02:08:18;33.22;;;15.15;;
82022;SDS011;71575;49.908;18.356;2024-01-11T02:11:22;32.45;;;16.13;;
82022;SDS011;71575;49.908;18.356;2024-01-11T02:14:23;37.60;;;16.45;;
82022;SDS011;71575;49.908;18.356;2024-01-11T02:17:23;35.83;;;16.48;;
82022;SDS011;71575;49.908;18.356;2024-01-11T02:20:24;32.03;;;15.00;;
82022;SDS011;71575;49.908;18.356;2024-01-11T02:23:25;35.92;;;16.35;;
82022;SDS011;71575;49.908;18.356;2024-01-11T02:26:26;34.33;;;16.23;;
82022;SDS011;71575;49.908;18.356;2024-01-11T02:29:27;34.13;;;15.30;;
82022;SDS011;71575;49.908;18.356;2024-01-11T02:32:32;32.70;;;15.57;;
82022;SDS011;71575;49.908;18.356;2024-01-11T02:35:32;29.70;;;16.35;;
82022;SDS011;71575;49.908;18.356;2024-01-11T02:38:34;41.38;;;16.77;;
82022;SDS011;71575;49.908;18.356;2024-01-11T02:41:36;32.00;;;16.83;;
82022;SDS011;71575;49.908;18.356;2024-01-11T02:44:40;30.90;;;15.50;;
82022;SDS011;71575;49.908;18.356;2024-01-11T02:47:40;31.17;;;14.10;;
82022;SDS011;71575;49.908;18.356;2024-01-11T02:50:43;38.53;;;16.95;;
82022;SDS011;71575;49.908;18.356;2024-01-11T02:53:44;33.55;;;14.55;;
82022;SDS011;71575;49.908;18.356;2024-01-11T02:56:46;32.22;;;15.25;;
82022;SDS011;71575;49.908;18.356;2024-01-11T02:59:47;37.25;;;16.95;;
82022;SDS011;71575;49.908;18.356;2024-01-11T03:02:47;37.13;;;14.57;;
82022;SDS011;71575;49.908;18.356;2024-01-11T03:05:48;37.53;;;16.05;;
82022;SDS011;71575;49.908;18.356;2024-01-11T03:08:49;36.25;;;15.15;;
82022;SDS011;71575;49.908;18.356;2024-01-11T03:11:49;31.23;;;14.63;;
82022;SDS011;71575;49.908;18.356;2024-01-11T03:14:50;33.90;;;15.02;;
82022;SDS011;71575;49.908;18.356;2024-01-11T03:17:52;35.00;;;14.93;;
82022;SDS011;71575;49.908;18.356;2024-01-11T03:20:56;32.58;;;15.90;;
82022;SDS011;71575;49.908;18.356;2024-01-11T03:23:57;30.33;;;14.25;;
82022;SDS011;71575;49.908;18.356;2024-01-11T03:26:58;34.33;;;15.15;;
82022;SDS011;71575;49.908;18.356;2024-01-11T03:30:00;32.80;;;14.68;;
82022;SDS011;71575;49.908;18.356;2024-01-11T03:33:01;34.92;;;16.17;;
82022;SDS011;71575;49.908;18.356;2024-01-11T03:36:09;33.85;;;16.42;;
82022;SDS011;71575;49.908;18.356;2024-01-11T03:39:11;31.38;;;13.70;;
82022;SDS011;71575;49.908;18.356;2024-01-11T03:42:13;36.08;;;14.82;;
82022;SDS011;71575;49.908;18.356;2024-01-11T03:45:18;31.70;;;16.42;;
82022;SDS011;71575;49.908;18.356;2024-01-11T03:48:20;35.33;;;15.75;;
82022;SDS011;71575;49.908;18.356;2024-01-11T03:51:24;38.28;;;18.90;;
82022;SDS011;71575;49.908;18.356;2024-01-11T03:54:25;32.95;;;17.58;;
82022;SDS011;71575;49.908;18.356;2024-01-11T03:57:28;33.67;;;15.25;;
82022;SDS011;71575;49.908;18.356;2024-01-11T04:00:36;39.08;;;16.75;;
82022;SDS011;71575;49.908;18.356;2024-01-11T04:03:37;34.75;;;16.00;;
82022;SDS011;71575;49.908;18.356;2024-01-11T04:06:37;34.67;;;14.45;;
82022;SDS011;71575;49.908;18.356;2024-01-11T04:09:44;36.00;;;19.63;;
82022;SDS011;71575;49.908;18.356;2024-01-11T04:12:45;34.38;;;14.07;;
82022;SDS011;71575;49.908;18.356;2024-01-11T04:15:46;33.75;;;17.48;;
82022;SDS011;71575;49.908;18.356;2024-01-11T04:18:48;41.88;;;16.38;;
82022;SDS011;71575;49.908;18.356;2024-01-11T04:21:48;31.48;;;14.98;;
82022;SDS011;71575;49.908;18.356;2024-01-11T04:24:49;34.00;;;17.02;;
82022;SDS011;71575;49.908;18.356;2024-01-11T04:27:50;32.42;;;14.80;;
82022;SDS011;71575;49.908;18.356;2024-01-11T04:30:51;34.63;;;17.88;;
82022;SDS011;71575;49.908;18.356;2024-01-11T04:33:52;36.05;;;15.13;;
82022;SDS011;71575;49.908;18.356;2024-01-11T04:36:53;31.73;;;14.10;;
82022;SDS011;71575;49.908;18.356;2024-01-11T04:42:54;31.60;;;12.95;;
82022;SDS011;71575;49.908;18.356;2024-01-11T04:46:00;28.98;;;14.48;;
82022;SDS011;71575;49.908;18.356;2024-01-11T04:49:01;27.60;;;14.23;;
82022;SDS011;71575;49.908;18.356;2024-01-11T04:52:02;33.10;;;17.85;;
82022;SDS011;71575;49.908;18.356;2024-01-11T04:55:03;29.75;;;16.27;;
82022;SDS011;71575;49.908;18.356;2024-01-11T04:58:05;34.83;;;16.90;;
82022;SDS011;71575;49.908;18.356;2024-01-11T05:01:14;33.70;;;15.35;;
82022;SDS011;71575;49.908;18.356;2024-01-11T05:04:18;31.52;;;15.27;;
82022;SDS011;71575;49.908;18.356;2024-01-11T05:07:20;40.20;;;15.27;;
82022;SDS011;71575;49.908;18.356;2024-01-11T05:10:21;39.60;;;18.35;;
82022;SDS011;71575;49.908;18.356;2024-01-11T05:13:21;38.47;;;17.02;;
82022;SDS011;71575;49.908;18.356;2024-01-11T05:16:23;34.85;;;17.13;;
82022;SDS011;71575;49.908;18.356;2024-01-11T05:19:25;33.63;;;15.60;;
82022;SDS011;71575;49.908;18.356;2024-01-11T05:22:25;33.47;;;14.52;;
82022;SDS011;71575;49.908;18.356;2024-01-11T05:25:26;35.70;;;17.15;;
82022;SDS011;71575;49.908;18.356;2024-01-11T05:28:27;34.83;;;16.33;;
82022;SDS011;71575;49.908;18.356;2024-01-11T05:31:28;35.92;;;16.70;;
82022;SDS011;71575;49.908;18.356;2024-01-11T05:34:32;36.70;;;18.73;;
82022;SDS011;71575;49.908;18.356;2024-01-11T05:37:32;35.88;;;15.48;;
82022;SDS011;71575;49.908;18.356;2024-01-11T05:40:33;40.55;;;19.73;;
82022;SDS011;71575;49.908;18.356;2024-01-11T05:43:34;36.13;;;16.08;;
82022;SDS011;71575;49.908;18.356;2024-01-11T05:46:37;36.05;;;15.73;;
82022;SDS011;71575;49.908;18.356;2024-01-11T05:49:37;33.75;;;16.00;;
82022;SDS011;71575;49.908;18.356;2024-01-11T05:52:38;39.00;;;17.58;;
82022;SDS011;71575;49.908;18.356;2024-01-11T05:55:42;39.42;;;18.85;;
82022;SDS011;71575;49.908;18.356;2024-01-11T05:58:43;36.28;;;15.95;;
82022;SDS011;71575;49.908;18.356;2024-01-11T06:01:45;33.97;;;15.60;;
82022;SDS011;71575;49.908;18.356;2024-01-11T06:04:46;40.17;;;18.13;;
82022;SDS011;71575;49.908;18.356;2024-01-11T06:07:50;38.30;;;21.70;;
82022;SDS011;71575;49.908;18.356;2024-01-11T06:10:56;37.85;;;18.52;;
82022;SDS011;71575;49.908;18.356;2024-01-11T06:14:00;42.17;;;18.67;;
82022;SDS011;71575;49.908;18.356;2024-01-11T06:17:01;43.83;;;22.17;;
82022;SDS011;71575;49.908;18.356;2024-01-11T06:20:02;41.42;;;19.73;;
82022;SDS011;71575;49.908;18.356;2024-01-11T06:23:05;39.85;;;18.00;;
82022;SDS011;71575;49.908;18.356;2024-01-11T06:26:05;39.22;;;16.67;;
82022;SDS011;71575;49.908;18.356;2024-01-11T06:29:08;39.63;;;17.65;;
82022;SDS011;71575;49.908;18.356;2024-01-11T06:32:08;36.00;;;17.73;;
82022;SDS011;71575;49.908;18.356;2024-01-11T06:35:09;33.40;;;16.88;;
82022;SDS011;71575;49.908;18.356;2024-01-11T06:38:10;35.80;;;16.15;;
82022;SDS011;71575;49.908;18.356;2024-01-11T06:41:13;37.70;;;18.73;;
82022;SDS011;71575;49.908;18.356;2024-01-11T06:44:16;32.13;;;15.90;;
82022;SDS011;71575;49.908;18.356;2024-01-11T06:47:16;36.13;;;16.05;;
82022;SDS011;71575;49.908;18.356;2024-01-11T06:50:17;39.75;;;19.63;;
82022;SDS011;71575;49.908;18.356;2024-01-11T06:53:18;37.67;;;15.48;;
82022;SDS011;71575;49.908;18.356;2024-01-11T06:56:20;31.40;;;15.98;;
82022;SDS011;71575;49.908;18.356;2024-01-11T06:59:21;35.53;;;16.17;;
82022;SDS011;71575;49.908;18.356;2024-01-11T07:02:22;38.22;;;16.17;;
82022;SDS011;71575;49.908;18.356;2024-01-11T07:08:24;30.90;;;15.05;;
82022;SDS011;71575;49.908;18.356;2024-01-11T07:11:24;35.42;;;16.90;;
82022;SDS011;71575;49.908;18.356;2024-01-11T07:14:25;32.55;;;17.75;;
82022;SDS011;71575;49.908;18.356;2024-01-11T07:17:26;33.05;;;17.13;;
82022;SDS011;71575;49.908;18.356;2024-01-11T07:20:27;30.55;;;15.68;;
82022;SDS011;71575;49.908;18.356;2024-01-11T07:23:30;28.55;;;16.60;;
82022;SDS011;71575;49.908;18.356;2024-01-11T07:26:30;30.67;;;14.45;;
82022;SDS011;71575;49.908;18.356;2024-01-11T07:29:35;34.63;;;16.85;;
82022;SDS011;71575;49.908;18.356;2024-01-11T07:32:35;33.92;;;15.93;;
82022;SDS011;71575;49.908;18.356;2024-01-11T07:35:38;36.20;;;15.30;;
82022;SDS011;71575;49.908;18.356;2024-01-11T07:38:40;28.65;;;13.63;;
82022;SDS011;71575;49.908;18.356;2024-01-11T07:41:41;33.90;;;21.50;;
82022;SDS011;71575;49.908;18.356;2024-01-11T07:44:42;28.00;;;13.50;;
82022;SDS011;71575;49.908;18.356;2024-01-11T07:47:43;29.23;;;14.88;;
82022;SDS011;71575;49.908;18.356;2024-01-11T07:50:44;32.83;;;14.30;;
82022;SDS011;71575;49.908;18.356;2024-01-11T07:53:45;29.90;;;13.63;;
82022;SDS011;71575;49.908;18.356;2024-01-11T07:56:46;26.17;;;13.57;;
82022;SDS011;71575;49.908;18.356;2024-01-11T07:59:48;31.70;;;15.25;;
82022;SDS011;71575;49.908;18.356;2024-01-11T08:02:49;34.50;;;15.38;;
82022;SDS011;71575;49.908;18.356;2024-01-11T08:05:50;35.20;;;14.50;;
82022;SDS011;71575;49.908;18.356;2024-01-11T08:08:51;33.30;;;15.73;;
82022;SDS011;71575;49.908;18.356;2024-01-11T08:11:52;31.15;;;14.18;;
82022;SDS011;71575;49.908;18.356;2024-01-11T08:14:53;28.55;;;14.23;;
82022;SDS011;71575;49.908;18.356;2024-01-11T08:17:54;29.45;;;14.45;;
82022;SDS011;71575;49.908;18.356;2024-01-11T08:23:56;26.02;;;13.45;;
82022;SDS011;71575;49.908;18.356;2024-01-11T08:26:58;29.35;;;14.63;;
82022;SDS011;71575;49.908;18.356;2024-01-11T08:29:59;31.15;;;14.32;;
82022;SDS011;71575;49.908;18.356;2024-01-11T08:33:00;28.85;;;13.82;;
82022;SDS011;71575;49.908;18.356;2024-01-11T08:36:03;26.05;;;13.25;;
82022;SDS011;71575;49.908;18.356;2024-01-11T08:39:06;31.40;;;16.85;;
82022;SDS011;71575;49.908;18.356;2024-01-11T08:42:09;32.70;;;14.13;;
82022;SDS011;71575;49.908;18.356;2024-01-11T08:45:10;26.15;;;12.90;;
82022;SDS011;71575;49.908;18.356;2024-01-11T08:48:11;28.65;;;17.45;;
82022;SDS011;71575;49.908;18.356;2024-01-11T08:51:13;28.67;;;14.38;;
82022;SDS011;71575;49.908;18.356;2024-01-11T08:54:15;28.38;;;13.18;;
82022;SDS011;71575;49.908;18.356;2024-01-11T08:57:16;25.30;;;12.95;;
82022;SDS011;71575;49.908;18.356;2024-01-11T09:00:17;25.95;;;13.27;;
82022;SDS011;71575;49.908;18.356;2024-01-11T09:03:17;27.10;;;12.30;;
82022;SDS011;71575;49.908;18.356;2024-01-11T09:06:18;28.13;;;13.80;;
82022;SDS011;71575;49.908;18.356;2024-01-11T09:09:19;29.60;;;15.00;;
82022;SDS011;71575;49.908;18.356;2024-01-11T09:12:21;25.98;;;13.48;;
82022;SDS011;71575;49.908;18.356;2024-01-11T09:15:22;26.23;;;13.52;;
82022;SDS011;71575;49.908;18.356;2024-01-11T09:18:25;24.98;;;12.30;;
82022;SDS011;71575;49.908;18.356;2024-01-11T09:21:26;28.80;;;13.95;;
82022;SDS011;71575;49.908;18.356;2024-01-11T09:27:28;26.80;;;12.68;;
82022;SDS011;71575;49.908;18.356;2024-01-11T09:30:35;29.00;;;15.85;;
82022;SDS011;71575;49.908;18.356;2024-01-11T09:33:38;27.05;;;14.57;;
82022;SDS011;71575;49.908;18.356;2024-01-11T09:36:39;29.85;;;13.93;;
82022;SDS011;71575;49.908;18.356;2024-01-11T09:42:41;25.13;;;14.35;;
82022;SDS011;71575;49.908;18.356;2024-01-11T09:45:41;23.70;;;13.63;;
82022;SDS011;71575;49.908;18.356;2024-01-11T09:51:45;23.10;;;12.30;;
82022;SDS011;71575;49.908;18.356;2024-01-11T09:54:46;22.75;;;12.77;;
82022;SDS011;71575;49.908;18.356;2024-01-11T10:00:52;22.02;;;9.65;;
82022;SDS011;71575;49.908;18.356;2024-01-11T10:03:55;20.77;;;10.32;;
82022;SDS011;71575;49.908;18.356;2024-01-11T10:06:57;19.90;;;10.77;;
82022;SDS011;71575;49.908;18.356;2024-01-11T10:12:58;22.75;;;12.23;;
82022;SDS011;71575;49.908;18.356;2024-01-11T10:16:09;24.55;;;13.95;;
82022;SDS011;71575;49.908;18.356;2024-01-11T10:19:12;21.33;;;10.32;;
82022;SDS011;71575;49.908;18.356;2024-01-11T10:25:17;22.95;;;10.85;;
82022;SDS011;71575;49.908;18.356;2024-01-11T10:28:17;25.10;;;12.32;;
82022;SDS011;71575;49.908;18.356;2024-01-11T10:31:18;24.63;;;14.27;;
82022;SDS011;71575;49.908;18.356;2024-01-11T10:34:23;27.42;;;13.27;;
82022;SDS011;71575;49.908;18.356;2024-01-11T10:37:24;23.10;;;13.45;;
82022;SDS011;71575;49.908;18.356;2024-01-11T10:40:25;26.88;;;12.88;;
82022;SDS011;71575;49.908;18.356;2024-01-11T10:43:28;23.83;;;13.60;;
82022;SDS011;71575;49.908;18.356;2024-01-11T10:46:29;26.10;;;13.65;;
82022;SDS011;71575;49.908;18.356;2024-01-11T10:49:33;28.52;;;14.10;;
82022;SDS011;71575;49.908;18.356;2024-01-11T10:52:36;32.03;;;15.85;;
82022;SDS011;71575;49.908;18.356;2024-01-11T10:55:38;27.40;;;14.57;;
82022;SDS011;71575;49.908;18.356;2024-01-11T10:58:40;27.05;;;15.15;;
82022;SDS011;71575;49.908;18.356;2024-01-11T11:01:41;31.48;;;19.27;;
82022;SDS011;71575;49.908;18.356;2024-01-11T11:04:42;32.20;;;15.63;;
82022;SDS011;71575;49.908;18.356;2024-01-11T11:07:44;26.77;;;14.68;;
82022;SDS011;71575;49.908;18.356;2024-01-11T11:10:45;31.13;;;15.07;;
82022;SDS011;71575;49.908;18.356;2024-01-11T11:13:48;28.85;;;14.32;;
82022;SDS011;71575;49.908;18.356;2024-01-11T11:16:50;28.95;;;15.13;;
82022;SDS011;71575;49.908;18.356;2024-01-11T11:19:52;31.23;;;15.25;;
82022;SDS011;71575;49.908;18.356;2024-01-11T11:23:05;30.30;;;14.48;;
82022;SDS011;71575;49.908;18.356;2024-01-11T11:26:07;27.17;;;14.55;;
82022;SDS011;71575;49.908;18.356;2024-01-11T11:29:15;27.77;;;16.05;;
82022;SDS011;71575;49.908;18.356;2024-01-11T11:32:19;27.80;;;12.95;;
82022;SDS011;71575;49.908;18.356;2024-01-11T11:35:35;29.05;;;14.98;;
82022;SDS011;71575;49.908;18.356;2024-01-11T11:38:36;29.15;;;13.10;;
82022;SDS011;71575;49.908;18.356;2024-01-11T11:44:47;26.63;;;12.88;;
82022;SDS011;71575;49.908;18.356;2024-01-11T11:47:48;26.67;;;14.30;;
82022;SDS011;71575;49.908;18.356;2024-01-11T11:51:00;26.10;;;12.70;;
82022;SDS011;71575;49.908;18.356;2024-01-11T11:54:06;24.77;;;12.68;;
82022;SDS011;71575;49.908;18.356;2024-01-11T11:57:08;26.60;;;13.88;;
82022;SDS011;71575;49.908;18.356;2024-01-11T12:00:10;25.08;;;12.82;;
82022;SDS011;71575;49.908;18.356;2024-01-11T12:03:12;26.80;;;13.82;;
82022;SDS011;71575;49.908;18.356;2024-01-11T12:06:14;29.08;;;14.50;;
82022;SDS011;71575;49.908;18.356;2024-01-11T12:09:18;29.05;;;15.57;;
82022;SDS011;71575;49.908;18.356;2024-01-11T12:12:18;28.95;;;14.15;;
82022;SDS011;71575;49.908;18.356;2024-01-11T12:15:19;27.92;;;14.65;;
82022;SDS011;71575;49.908;18.356;2024-01-11T12:18:25;27.88;;;13.90;;
82022;SDS011;71575;49.908;18.356;2024-01-11T12:21:28;30.73;;;15.43;;
82022;SDS011;71575;49.908;18.356;2024-01-11T12:24:30;26.00;;;14.38;;
82022;SDS011;71575;49.908;18.356;2024-01-11T12:27:31;31.48;;;16.40;;
82022;SDS011;71575;49.908;18.356;2024-01-11T12:30:32;25.75;;;12.77;;
82022;SDS011;71575;49.908;18.356;2024-01-11T12:33:37;26.15;;;13.70;;
82022;SDS011;71575;49.908;18.356;2024-01-11T12:36:37;26.88;;;15.10;;
82022;SDS011;71575;49.908;18.356;2024-01-11T12:39:38;26.50;;;14.77;;
82022;SDS011;71575;49.908;18.356;2024-01-11T12:42:39;29.33;;;14.95;;
82022;SDS011;71575;49.908;18.356;2024-01-11T12:45:40;32.55;;;14.68;;
82022;SDS011;71575;49.908;18.356;2024-01-11T12:48:41;25.35;;;12.38;;
82022;SDS011;71575;49.908;18.356;2024-01-11T12:51:44;28.08;;;11.60;;
82022;SDS011;71575;49.908;18.356;2024-01-11T12:54:45;24.02;;;13.38;;
82022;SDS011;71575;49.908;18.356;2024-01-11T12:57:46;22.98;;;12.57;;
82022;SDS011;71575;49.908;18.356;2024-01-11T13:00:47;24.63;;;11.65;;
82022;SDS011;71575;49.908;18.356;2024-01-11T13:03:48;24.55;;;13.00;;
82022;SDS011;71575;49.908;18.356;2024-01-11T13:06:49;25.23;;;13.80;;
82022;SDS011;71575;49.908;18.356;2024-01-11T13:09:51;27.05;;;14.00;;
82022;SDS011;71575;49.908;18.356;2024-01-11T13:12:56;26.75;;;15.85;;
82022;SDS011;71575;49.908;18.356;2024-01-11T13:15:59;25.33;;;12.45;;
82022;SDS011;71575;49.908;18.356;2024-01-11T13:19:00;24.60;;;12.60;;
82022;SDS011;71575;49.908;18.356;2024-01-11T13:22:02;23.85;;;13.45;;
82022;SDS011;71575;49.908;18.356;2024-01-11T13:25:03;25.20;;;12.85;;
82022;SDS011;71575;49.908;18.356;2024-01-11T13:28:04;24.67;;;11.15;;
82022;SDS011;71575;49.908;18.356;2024-01-11T13:31:04;24.60;;;12.23;;
82022;SDS011;71575;49.908;18.356;2024-01-11T13:34:05;24.80;;;13.65;;
82022;SDS011;71575;49.908;18.356;2024-01-11T13:37:06;26.05;;;12.85;;
82022;SDS011;71575;49.908;18.356;2024-01-11T13:40:08;23.10;;;12.95;;
82022;SDS011;71575;49.908;18.356;2024-01-11T13:43:09;25.15;;;12.93;;
82022;SDS011;71575;49.908;18.356;2024-01-11T13:46:13;30.70;;;13.38;;
82022;SDS011;71575;49.908;18.356;2024-01-11T13:49:13;27.77;;;14.25;;
82022;SDS011;71575;49.908;18.356;2024-01-11T13:52:14;31.02;;;14.15;;
82022;SDS011;71575;49.908;18.356;2024-01-11T13:55:14;32.17;;;14.90;;
82022;SDS011;71575;49.908;18.356;2024-01-11T13:58:16;34.22;;;15.40;;
82022;SDS011;71575;49.908;18.356;2024-01-11T14:01:18;30.23;;;16.45;;
82022;SDS011;71575;49.908;18.356;2024-01-11T14:04:19;32.33;;;16.58;;
82022;SDS011;71575;49.908;18.356;2024-01-11T14:07:20;37.05;;;16.90;;
82022;SDS011;71575;49.908;18.356;2024-01-11T14:10:21;34.50;;;17.10;;
82022;SDS011;71575;49.908;18.356;2024-01-11T14:13:21;36.13;;;19.73;;
82022;SDS011;71575;49.908;18.356;2024-01-11T14:16:22;34.25;;;18.52;;
82022;SDS011;71575;49.908;18.356;2024-01-11T14:19:23;34.80;;;16.67;;
82022;SDS011;71575;49.908;18.356;2024-01-11T14:22:24;36.63;;;19.65;;
82022;SDS011;71575;49.908;18.356;2024-01-11T14:28:26;38.85;;;19.02;;
82022;SDS011;71575;49.908;18.356;2024-01-11T14:31:28;40.28;;;19.58;;
82022;SDS011;71575;49.908;18.356;2024-01-11T14:34:29;37.65;;;19.17;;
82022;SDS011;71575;49.908;18.356;2024-01-11T14:37:30;40.15;;;20.00;;
82022;SDS011;71575;49.908;18.356;2024-01-11T14:40:32;37.58;;;19.30;;
82022;SDS011;71575;49.908;18.356;2024-01-11T14:46:35;37.83;;;19.17;;
82022;SDS011;71575;49.908;18.356;2024-01-11T14:49:36;39.58;;;18.85;;
82022;SDS011;71575;49.908;18.356;2024-01-11T14:55:37;38.95;;;19.92;;
82022;SDS011;71575;49.908;18.356;2024-01-11T14:58:38;38.83;;;20.40;;
82022;SDS011;71575;49.908;18.356;2024-01-11T15:01:39;38.70;;;21.90;;
82022;SDS011;71575;49.908;18.356;2024-01-11T15:04:39;45.50;;;21.35;;
82022;SDS011;71575;49.908;18.356;2024-01-11T15:07:40;40.17;;;20.58;;
82022;SDS011;71575;49.908;18.356;2024-01-11T15:10:41;44.53;;;23.00;;
82022;SDS011;71575;49.908;18.356;2024-01-11T15:13:41;40.42;;;22.77;;
82022;SDS011;71575;49.908;18.356;2024-01-11T15:16:42;38.22;;;20.75;;
82022;SDS011;71575;49.908;18.356;2024-01-11T15:19:43;42.03;;;21.38;;
82022;SDS011;71575;49.908;18.356;2024-01-11T15:25:44;40.97;;;20.85;;
82022;SDS011;71575;49.908;18.356;2024-01-11T15:28:45;43.85;;;22.33;;
82022;SDS011;71575;49.908;18.356;2024-01-11T15:31:46;41.08;;;22.95;;
82022;SDS011;71575;49.908;18.356;2024-01-11T15:34:47;46.30;;;22.05;;
82022;SDS011;71575;49.908;18.356;2024-01-11T15:40:49;42.75;;;21.52;;
82022;SDS011;71575;49.908;18.356;2024-01-11T15:46:53;53.03;;;27.40;;
82022;SDS011;71575;49.908;18.356;2024-01-11T15:52:57;44.53;;;22.38;;
82022;SDS011;71575;49.908;18.356;2024-01-11T15:55:58;58.92;;;26.13;;
82022;SDS011;71575;49.908;18.356;2024-01-11T16:01:59;47.67;;;23.50;;
82022;SDS011;71575;49.908;18.356;2024-01-11T16:08:01;44.40;;;20.23;;
82022;SDS011;71575;49.908;18.356;2024-01-11T16:11:02;41.20;;;17.27;;
82022;SDS011;71575;49.908;18.356;2024-01-11T16:17:03;27.75;;;11.43;;
82022;SDS011;71575;49.908;18.356;2024-01-11T16:23:05;22.40;;;9.93;;
82022;SDS011;71575;49.908;18.356;2024-01-11T16:26:07;27.45;;;10.15;;
82022;SDS011;71575;49.908;18.356;2024-01-11T16:32:09;27.88;;;11.13;;
82022;SDS011;71575;49.908;18.356;2024-01-11T16:38:10;21.83;;;8.88;;
82022;SDS011;71575;49.908;18.356;2024-01-11T16:41:13;19.38;;;10.02;;
82022;SDS011;71575;49.908;18.356;2024-01-11T16:44:17;29.85;;;10.40;;
82022;SDS011;71575;49.908;18.356;2024-01-11T16:47:18;27.90;;;11.65;;
82022;SDS011;71575;49.908;18.356;2024-01-11T16:53:19;27.65;;;15.55;;
82022;SDS011;71575;49.908;18.356;2024-01-11T16:56:20;27.10;;;11.32;;
82022;SDS011;71575;49.908;18.356;2024-01-11T16:59:21;28.23;;;12.77;;
82022;SDS011;71575;49.908;18.356;2024-01-11T17:02:22;30.70;;;14.05;;
82022;SDS011;71575;49.908;18.356;2024-01-11T17:05:23;27.83;;;13.65;;
82022;SDS011;71575;49.908;18.356;2024-01-11T17:11:24;31.90;;;15.18;;
82022;SDS011;71575;49.908;18.356;2024-01-11T17:17:25;29.75;;;14.93;;
82022;SDS011;71575;49.908;18.356;2024-01-11T17:20:26;32.28;;;14.13;;
82022;SDS011;71575;49.908;18.356;2024-01-11T17:23:29;34.20;;;14.25;;
82022;SDS011;71575;49.908;18.356;2024-01-11T17:26:30;31.33;;;15.07;;
82022;SDS011;71575;49.908;18.356;2024-01-11T17:32:31;31.50;;;14.73;;
82022;SDS011;71575;49.908;18.356;2024-01-11T17:35:34;35.40;;;15.63;;
82022;SDS011;71575;49.908;18.356;2024-01-11T17:41:39;30.65;;;14.57;;
82022;SDS011;71575;49.908;18.356;2024-01-11T17:44:43;37.92;;;17.98;;
82022;SDS011;71575;49.908;18.356;2024-01-11T17:47:44;30.10;;;14.93;;
82022;SDS011;71575;49.908;18.356;2024-01-11T17:50:45;29.38;;;14.82;;
82022;SDS011;71575;49.908;18.356;2024-01-11T17:53:46;36.95;;;15.88;;
82022;SDS011;71575;49.908;18.356;2024-01-11T17:56:46;36.70;;;17.95;;
82022;SDS011;71575;49.908;18.356;2024-01-11T17:59:47;36.28;;;16.27;;
82022;SDS011;71575;49.908;18.356;2024-01-11T18:02:48;38.00;;;16.42;;
82022;SDS011;71575;49.908;18.356;2024-01-11T18:08:50;38.38;;;17.67;;
82022;SDS011;71575;49.908;18.356;2024-01-11T18:11:51;39.92;;;16.55;;
82022;SDS011;71575;49.908;18.356;2024-01-11T18:14:52;39.67;;;17.00;;
82022;SDS011;71575;49.908;18.356;2024-01-11T18:17:53;35.83;;;16.33;;
82022;SDS011;71575;49.908;18.356;2024-01-11T18:20:53;36.45;;;16.25;;
82022;SDS011;71575;49.908;18.356;2024-01-11T18:23:54;35.13;;;16.13;;
82022;SDS011;71575;49.908;18.356;2024-01-11T18:26:55;40.83;;;18.20;;
82022;SDS011;71575;49.908;18.356;2024-01-11T18:29:56;41.05;;;19.05;;
82022;SDS011;71575;49.908;18.356;2024-01-11T18:32:56;38.28;;;16.05;;
82022;SDS011;71575;49.908;18.356;2024-01-11T18:38:57;36.17;;;15.43;;
82022;SDS011;71575;49.908;18.356;2024-01-11T18:41:58;37.47;;;17.85;;
82022;SDS011;71575;49.908;18.356;2024-01-11T18:44:59;36.30;;;16.38;;
82022;SDS011;71575;49.908;18.356;2024-01-11T18:51:00;35.05;;;17.13;;
82022;SDS011;71575;49.908;18.356;2024-01-11T18:54:01;40.22;;;17.08;;
82022;SDS011;71575;49.908;18.356;2024-01-11T19:00:03;35.83;;;15.63;;
82022;SDS011;71575;49.908;18.356;2024-01-11T19:03:04;32.80;;;17.17;;